createdAt,value
2022-08-08T03:52:13.153Z,11.97
2022-08-08T03:58:31.631Z,11.88
2022-08-08T04:02:51.578Z,11.99
2022-08-08T04:07:58.814Z,12.11
2022-08-08T04:13:17.406Z,12.10
2022-08-08T04:18:24.712Z,12.19
2022-08-08T04:24:00.416Z,12.19
2022-08-08T04:28:50.686Z,12.32
2022-08-08T04:33:57.217Z,12.33
2022-08-08T04:39:47.674Z,12.16
2022-08-08T04:44:21.917Z,12.14
2022-08-08T04:50:00.734Z,12.21
2022-08-08T04:54:51.790Z,12.28
2022-08-08T04:59:54.270Z,12.25
2022-08-08T05:04:56.930Z,12.54
2022-08-08T05:10:04.802Z,12.68
2022-08-08T05:15:13.739Z,12.88
2022-08-08T05:20:17.410Z,13.11
2022-08-08T05:25:20.478Z,13.43
2022-08-08T05:30:28.011Z,13.57
2022-08-08T05:35:35.759Z,13.75
2022-08-08T05:40:50.674Z,14.05
2022-08-08T05:46:03.395Z,14.40
2022-08-08T05:51:13.325Z,14.68
2022-08-08T05:56:20.776Z,14.89
2022-08-08T06:01:55.398Z,15.15
2022-08-08T06:06:50.265Z,15.39
2022-08-08T06:11:56.085Z,15.63
2022-08-08T06:17:02.563Z,15.89
2022-08-08T06:22:35.304Z,16.17
2022-08-08T06:27:48.436Z,16.41
2022-08-08T06:32:56.531Z,16.74
2022-08-08T06:38:09.325Z,17.11
2022-08-08T06:43:28.537Z,17.36
2022-08-08T06:48:39.547Z,17.69
2022-08-08T06:53:51.347Z,18.03
2022-08-08T06:59:09.915Z,18.39
2022-08-08T07:04:38.778Z,18.77
2022-08-08T07:09:59.194Z,19.14
2022-08-08T07:15:15.565Z,19.57
2022-08-08T07:20:35.479Z,20.03
2022-08-08T07:25:54.874Z,20.59
2022-08-08T07:31:01.432Z,21.31
2022-08-08T07:36:08.303Z,22.05
2022-08-08T07:41:16.801Z,23.12
2022-08-08T07:46:30.776Z,23.18
2022-08-08T07:51:53.278Z,23.10
2022-08-08T07:57:36.483Z,22.82
2022-08-08T08:02:48.103Z,22.73
2022-08-08T08:08:20.526Z,23.41
2022-08-08T08:14:07.647Z,24.70
2022-08-08T08:19:17.896Z,36.40
2022-08-08T08:24:30.343Z,44.67
2022-08-08T08:29:35.703Z,55.67
2022-08-08T08:34:43.219Z,58.62
2022-08-08T08:40:01.654Z,50.71
2022-08-08T08:45:22.684Z,41.11
2022-08-08T08:50:35.523Z,36.62
2022-08-08T08:55:43.927Z,35.30
2022-08-08T09:01:09.236Z,35.01
2022-08-08T09:06:26.208Z,34.90
2022-08-08T09:11:33.964Z,34.93
2022-08-08T09:16:37.092Z,34.75
2022-08-08T09:21:57.053Z,35.34
2022-08-08T09:27:20.474Z,35.87
2022-08-08T09:32:50.271Z,37.22
2022-08-08T09:38:05.650Z,38.19
2022-08-08T09:44:04.685Z,39.01
2022-08-08T09:48:58.045Z,36.68
2022-08-08T09:54:37.327Z,38.06
2022-08-08T09:59:50.566Z,37.49
2022-08-08T10:05:26.223Z,38.71
2022-08-08T10:10:37.302Z,40.12
2022-08-08T10:15:39.575Z,37.87
2022-08-08T10:20:57.630Z,38.96
2022-08-08T10:26:04.744Z,40.03
2022-08-08T10:31:50.081Z,40.14
2022-08-08T10:36:53.150Z,36.25
2022-08-08T10:42:16.760Z,36.36
2022-08-08T10:47:21.094Z,37.26
2022-08-08T10:52:37.865Z,34.11
2022-08-08T10:57:49.754Z,31.62
2022-08-08T11:02:55.199Z,30.30
2022-08-08T11:08:31.012Z,29.54
2022-08-08T11:13:30.400Z,33.48
2022-08-08T11:18:36.777Z,36.83
2022-08-08T11:23:42.399Z,36.79
2022-08-08T11:28:45.910Z,37.60
2022-08-08T11:34:01.448Z,34.12
2022-08-08T11:39:11.048Z,35.51
2022-08-08T11:44:15.884Z,34.33
2022-08-08T11:49:19.032Z,36.07
2022-08-08T11:54:33.706Z,35.30
2022-08-08T11:59:56.917Z,32.61
2022-08-08T12:05:06.790Z,31.28
2022-08-08T12:10:33.968Z,30.30
2022-08-08T12:15:48.182Z,30.18
2022-08-08T12:20:54.225Z,30.42
2022-08-08T12:25:56.994Z,30.47
2022-08-08T12:31:07.086Z,32.12
2022-08-08T12:36:12.343Z,33.66
2022-08-08T12:41:18.169Z,34.21
2022-08-08T12:46:37.069Z,31.77
2022-08-08T12:51:41.548Z,30.52
2022-08-08T12:56:53.066Z,30.04
2022-08-08T13:02:01.106Z,30.06
2022-08-08T13:07:16.501Z,32.40
2022-08-08T13:12:34.260Z,33.61
2022-08-08T13:18:09.518Z,34.33
2022-08-08T13:23:30.789Z,34.29
2022-08-08T13:28:29.164Z,32.26
2022-08-08T13:33:41.938Z,31.09
2022-08-08T13:38:45.368Z,30.35
2022-08-08T13:43:50.896Z,29.89
2022-08-08T13:50:33.325Z,30.73
2022-08-08T13:54:21.743Z,29.96
2022-08-08T13:59:32.831Z,29.45
2022-08-08T14:04:36.438Z,28.93
2022-08-08T14:10:02.330Z,28.59
2022-08-08T14:15:05.935Z,28.42
2022-08-08T14:20:15.472Z,28.28
2022-08-08T14:25:46.393Z,28.40
2022-08-08T14:31:10.363Z,28.59
2022-08-08T14:36:13.829Z,28.89
2022-08-08T14:41:53.158Z,29.23
2022-08-08T14:46:42.861Z,28.82
2022-08-08T14:51:51.851Z,28.56
2022-08-08T14:56:54.715Z,28.30
2022-08-08T15:01:59.483Z,28.13
2022-08-08T15:07:02.750Z,27.69
2022-08-08T15:12:06.927Z,27.66
2022-08-08T15:17:11.394Z,28.71
2022-08-08T15:22:17.880Z,29.66
2022-08-08T15:28:04.266Z,30.17
2022-08-08T15:32:48.028Z,30.49
2022-08-08T15:37:50.508Z,30.56
2022-08-08T15:42:52.800Z,30.37
2022-08-08T15:48:01.430Z,30.11
2022-08-08T15:53:18.773Z,30.04
2022-08-08T15:58:21.019Z,29.97
2022-08-08T16:03:30.744Z,29.91
2022-08-08T16:08:34.633Z,29.84
2022-08-08T16:13:46.167Z,29.74
2022-08-08T16:18:56.267Z,29.63
2022-08-08T16:24:06.478Z,29.20
2022-08-08T16:29:15.369Z,28.53
2022-08-08T16:34:19.643Z,28.02
2022-08-08T16:39:49.086Z,27.77
2022-08-08T16:44:54.000Z,27.91
2022-08-08T16:50:11.142Z,27.47
2022-08-08T16:55:27.996Z,27.05
2022-08-08T17:00:42.770Z,26.81
2022-08-08T17:05:53.526Z,26.78
2022-08-08T17:10:58.976Z,26.63
2022-08-08T17:16:15.085Z,26.16
2022-08-08T17:21:18.232Z,25.81
2022-08-08T17:26:28.921Z,25.65
2022-08-08T17:31:44.616Z,25.45
2022-08-08T17:37:00.541Z,25.20
2022-08-08T17:42:06.054Z,25.03
2022-08-08T17:47:09.583Z,24.91
2022-08-08T17:52:12.059Z,24.73
2022-08-08T17:57:15.029Z,24.67
2022-08-08T18:02:21.422Z,24.57
2022-08-08T18:08:02.126Z,24.48
2022-08-08T18:12:50.872Z,24.32
2022-08-08T18:18:27.433Z,24.16
2022-08-08T18:23:16.098Z,24.05
2022-08-08T18:28:23.365Z,23.94
2022-08-08T18:34:10.756Z,23.80
2022-08-08T18:38:50.647Z,23.64
2022-08-08T18:43:54.220Z,23.51
2022-08-08T18:48:56.541Z,23.40
2022-08-08T18:54:02.738Z,23.26
2022-08-08T18:59:13.287Z,23.16
2022-08-08T19:04:16.054Z,23.02
2022-08-08T19:09:18.421Z,22.97
2022-08-08T19:14:25.628Z,22.82
2022-08-08T19:19:31.313Z,22.71
2022-08-08T19:24:42.936Z,22.59
2022-08-08T19:29:56.348Z,22.51
2022-08-08T19:34:58.674Z,22.38
2022-08-08T19:40:09.205Z,22.28
2022-08-08T19:45:59.210Z,22.16
2022-08-08T19:50:40.220Z,21.99
2022-08-08T19:55:42.971Z,21.92
2022-08-08T20:00:46.961Z,21.84
2022-08-08T20:06:13.538Z,21.77
2022-08-08T20:11:19.243Z,21.75
2022-08-08T20:16:29.408Z,21.76
2022-08-08T20:21:37.942Z,21.77
2022-08-08T20:26:41.849Z,21.67
2022-08-08T20:32:10.287Z,21.58
2022-08-08T20:37:14.604Z,21.55
2022-08-08T20:42:28.879Z,21.51
2022-08-08T20:47:36.468Z,21.44
2022-08-08T20:52:44.771Z,21.25
2022-08-08T20:57:51.261Z,21.15
2022-08-08T21:02:53.921Z,21.09
2022-08-08T21:08:36.834Z,20.90
2022-08-08T21:13:19.250Z,20.83
2022-08-08T21:18:22.722Z,20.79
2022-08-08T21:24:02.449Z,20.69
2022-08-08T21:28:55.994Z,20.56
2022-08-08T21:34:03.074Z,20.46
2022-08-08T21:39:05.839Z,20.43
2022-08-08T21:44:11.970Z,20.28
